createdAt,value
2017-09-28T00:01:01.749Z,99986
2017-09-28T00:03:07.848Z,99989
2017-09-28T00:05:14.054Z,99991
2017-09-28T00:07:20.275Z,99986
2017-09-28T00:09:28.940Z,99983
2017-09-28T00:11:36.546Z,99976
2017-09-28T00:13:42.669Z,99974
2017-09-28T00:15:49.551Z,99975
2017-09-28T00:17:57.853Z,99976
2017-09-28T00:20:05.631Z,99975
2017-09-28T00:22:12.212Z,99978
2017-09-28T00:24:19.138Z,99974
2017-09-28T00:26:25.986Z,99976
2017-09-28T00:28:34.045Z,99974
2017-09-28T00:30:41.600Z,99970
2017-09-28T00:32:47.530Z,99970
2017-09-28T00:34:55.465Z,99973
2017-09-28T00:37:01.832Z,99969
2017-09-28T00:39:08.227Z,99970
2017-09-28T00:41:14.460Z,99971
2017-09-28T00:43:21.301Z,99966
2017-09-28T00:45:31.695Z,99967
2017-09-28T00:47:44.605Z,99970
2017-09-28T00:49:51.019Z,99971
2017-09-28T00:51:59.075Z,99970
2017-09-28T00:54:05.347Z,99970
2017-09-28T00:56:11.620Z,99966
2017-09-28T00:58:18.209Z,99967
2017-09-28T01:00:24.197Z,99966
2017-09-28T01:02:31.239Z,99961
2017-09-28T01:04:37.875Z,99957
2017-09-28T01:06:44.147Z,99961
2017-09-28T01:08:50.286Z,99960
2017-09-28T01:10:58.259Z,99964
2017-09-28T01:13:04.276Z,99960
2017-09-28T01:15:11.185Z,99955
2017-09-28T01:17:18.616Z,99957
2017-09-28T01:19:26.961Z,99954
2017-09-28T01:21:33.883Z,99955
2017-09-28T01:23:43.475Z,99956
2017-09-28T01:25:49.799Z,99956
2017-09-28T01:27:58.075Z,99958
2017-09-28T01:30:04.938Z,99957
2017-09-28T01:32:10.888Z,99963
2017-09-28T01:34:17.493Z,99959
2017-09-28T01:36:24.028Z,99959
2017-09-28T01:38:30.483Z,99964
2017-09-28T01:40:36.823Z,99964
2017-09-28T01:42:42.984Z,99955
2017-09-28T01:44:49.210Z,99957
2017-09-28T01:46:57.209Z,99955
2017-09-28T01:49:03.422Z,99959
2017-09-28T01:51:09.515Z,99953
2017-09-28T01:53:18.504Z,99956
2017-09-28T01:55:26.964Z,99956
2017-09-28T01:57:35.091Z,99958
2017-09-28T01:59:44.018Z,99957
2017-09-28T02:01:52.914Z,99951
2017-09-28T02:04:01.698Z,99958
2017-09-28T02:06:07.989Z,99958
2017-09-28T02:08:14.702Z,99960
2017-09-28T02:10:21.309Z,99964
2017-09-28T02:12:28.464Z,99965
2017-09-28T02:14:36.492Z,99964
2017-09-28T02:16:42.136Z,99968
2017-09-28T02:18:48.241Z,99970
2017-09-28T02:20:55.931Z,99972
2017-09-28T02:23:02.383Z,99969
2017-09-28T02:25:09.118Z,99969
2017-09-28T02:27:14.920Z,99966
2017-09-28T02:29:20.891Z,99959
2017-09-28T02:31:27.479Z,99967
2017-09-28T02:33:34.596Z,99972
2017-09-28T02:35:42.639Z,99975
2017-09-28T02:37:49.065Z,99975
2017-09-28T02:39:55.296Z,99976
2017-09-28T02:42:02.254Z,99976
2017-09-28T02:44:08.949Z,99978
2017-09-28T02:46:14.796Z,99979
2017-09-28T02:48:20.585Z,99989
2017-09-28T02:50:25.928Z,99991
2017-09-28T02:52:32.933Z,99995
2017-09-28T02:54:38.663Z,99990
2017-09-28T02:56:44.472Z,99987
2017-09-28T02:58:50.110Z,99988
2017-09-28T03:00:57.982Z,99992
2017-09-28T03:03:03.438Z,99995
2017-09-28T03:05:09.885Z,99992
2017-09-28T03:07:15.678Z,99993
2017-09-28T03:09:22.040Z,99991
2017-09-28T03:11:30.223Z,100000
2017-09-28T03:13:38.044Z,99997
2017-09-28T03:15:45.472Z,99994
2017-09-28T03:17:51.933Z,100001
2017-09-28T03:19:59.841Z,100003
2017-09-28T03:22:05.744Z,100005
2017-09-28T03:24:12.576Z,100001
2017-09-28T03:26:19.007Z,99999
2017-09-28T03:28:26.148Z,99998
2017-09-28T03:30:32.989Z,99999
2017-09-28T03:32:43.165Z,99998
2017-09-28T03:34:49.511Z,99998
2017-09-28T03:36:57.098Z,99992
2017-09-28T03:39:03.213Z,99989
2017-09-28T03:41:10.548Z,99988
2017-09-28T03:43:16.597Z,99990
2017-09-28T03:45:22.513Z,99988
2017-09-28T03:47:30.544Z,99991
2017-09-28T03:49:37.226Z,99991
2017-09-28T03:51:44.931Z,100000
2017-09-28T03:53:50.984Z,99998
2017-09-28T03:55:58.537Z,99999
2017-09-28T03:58:04.586Z,99999
2017-09-28T04:00:11.010Z,99997
2017-09-28T04:02:17.315Z,99996
2017-09-28T04:04:24.078Z,100003
2017-09-28T04:06:31.221Z,99995
2017-09-28T04:08:39.201Z,99997
2017-09-28T04:11:22.813Z,99993
2017-09-28T04:13:29.401Z,99997
2017-09-28T04:15:34.812Z,99998
2017-09-28T04:17:40.034Z,100004
2017-09-28T04:19:49.712Z,100014
2017-09-28T04:22:01.006Z,100012
2017-09-28T04:24:06.475Z,100011
2017-09-28T04:26:12.911Z,100010
2017-09-28T04:28:23.033Z,100011
2017-09-28T04:30:29.113Z,100011
2017-09-28T04:32:40.299Z,100015
2017-09-28T04:34:48.481Z,100017
2017-09-28T04:37:06.173Z,100013
2017-09-28T04:39:11.740Z,100007
2017-09-28T04:41:18.167Z,100013
2017-09-28T04:43:25.786Z,100021
2017-09-28T04:45:34.027Z,100017
2017-09-28T04:47:42.009Z,100010
2017-09-28T04:49:48.179Z,100014
2017-09-28T04:51:57.543Z,100012
2017-09-28T04:54:06.702Z,100007
2017-09-28T04:56:16.198Z,100007
2017-09-28T04:58:22.521Z,100006
2017-09-28T05:00:29.262Z,100004
2017-09-28T05:02:50.121Z,100006
2017-09-28T05:04:58.075Z,100004
2017-09-28T05:07:09.597Z,100011
2017-09-28T05:11:34.409Z,100013
2017-09-28T05:13:41.408Z,100011
2017-09-28T05:15:47.906Z,100018
2017-09-28T05:17:56.419Z,100025
2017-09-28T05:20:07.125Z,100029
2017-09-28T05:22:15.171Z,100038
2017-09-28T05:24:22.720Z,100036
2017-09-28T05:26:30.073Z,100028
2017-09-28T05:28:39.304Z,100042
2017-09-28T05:30:46.489Z,100040
2017-09-28T05:33:03.431Z,100046
2017-09-28T05:35:09.718Z,100041
2017-09-28T05:37:27.715Z,100034
2017-09-28T05:39:35.657Z,100031
2017-09-28T05:41:44.549Z,100026
2017-09-28T05:44:02.504Z,100019
2017-09-28T05:46:19.119Z,100011
2017-09-28T05:48:30.999Z,100010
2017-09-28T05:50:43.999Z,100026
2017-09-28T05:52:55.067Z,100029
2017-09-28T05:55:05.574Z,100019
2017-09-28T05:57:16.767Z,100032
2017-09-28T05:59:32.304Z,100027
2017-09-28T06:01:50.863Z,100029
2017-09-28T06:04:02.535Z,100030
2017-09-28T06:06:23.280Z,100037
2017-09-28T06:10:56.988Z,100043
2017-09-28T06:13:03.068Z,100059
2017-09-28T06:15:13.894Z,100050
2017-09-28T06:17:26.804Z,100055
2017-09-28T06:19:35.325Z,100051
2017-09-28T06:21:50.347Z,100045
2017-09-28T06:26:11.126Z,100044
2017-09-28T06:28:27.137Z,100046
2017-09-28T06:30:33.733Z,100043
2017-09-28T06:32:43.135Z,100047
2017-09-28T06:34:51.131Z,100042
2017-09-28T06:36:56.735Z,100039
2017-09-28T06:39:08.591Z,100036
2017-09-28T06:41:14.657Z,100040
2017-09-28T06:43:20.962Z,100045
2017-09-28T06:45:30.331Z,100042
2017-09-28T06:47:47.713Z,100038
2017-09-28T06:49:55.852Z,100042
2017-09-28T06:52:07.745Z,100032
2017-09-28T06:54:17.264Z,100033
2017-09-28T06:56:23.497Z,100034
2017-09-28T06:58:29.633Z,100033
2017-09-28T07:00:40.706Z,100036
2017-09-28T07:02:53.610Z,100036
2017-09-28T07:05:05.403Z,100035
2017-09-28T07:07:17.432Z,100042
2017-09-28T07:09:26.397Z,100047
2017-09-28T07:11:43.261Z,100050
2017-09-28T07:13:57.126Z,100059
2017-09-28T07:16:07.847Z,100054
2017-09-28T07:18:18.595Z,100053
2017-09-28T07:20:27.545Z,100059
2017-09-28T07:22:36.686Z,100063
2017-09-28T07:27:03.964Z,100050
2017-09-28T07:29:10.358Z,100052
2017-09-28T07:31:19.123Z,100053
2017-09-28T07:33:25.851Z,100065
2017-09-28T07:35:34.172Z,100070
2017-09-28T07:40:02.183Z,100064
2017-09-28T07:42:12.396Z,100073
2017-09-28T07:44:30.718Z,100066
2017-09-28T07:46:49.680Z,100072
2017-09-28T07:49:02.165Z,100073
2017-09-28T07:51:28.048Z,100073
2017-09-28T07:53:47.108Z,100077
2017-09-28T07:55:53.844Z,100081
2017-09-28T07:58:13.651Z,100077
2017-09-28T08:00:46.856Z,100068
2017-09-28T08:03:07.301Z,100072
2017-09-28T08:05:17.687Z,100069
2017-09-28T08:09:49.097Z,100074
2017-09-28T08:11:58.393Z,100072
2017-09-28T08:22:10.987Z,100068
2017-09-28T08:24:28.640Z,100069
2017-09-28T08:26:46.881Z,100073
2017-09-28T08:29:19.975Z,100072
2017-09-28T08:34:24.991Z,100062
2017-09-28T08:36:41.740Z,100061
2017-09-28T08:41:05.930Z,100061
2017-09-28T08:43:40.919Z,100059
2017-09-28T08:45:57.854Z,100057
2017-09-28T08:48:16.414Z,100057
2017-09-28T08:50:42.822Z,100053
2017-09-28T08:53:08.909Z,100056
2017-09-28T08:55:29.161Z,100053
2017-09-28T09:00:22.925Z,100055
2017-09-28T09:02:34.798Z,100055
2017-09-28T09:04:52.418Z,100055
2017-09-28T09:07:18.010Z,100052
2017-09-28T09:09:44.693Z,100052
2017-09-28T09:11:55.705Z,100048
2017-09-28T09:14:20.314Z,100042
2017-09-28T09:16:36.970Z,100045
2017-09-28T09:18:44.008Z,100042
2017-09-28T09:21:02.547Z,100045
2017-09-28T09:23:31.671Z,100043
2017-09-28T09:26:19.735Z,100042
2017-09-28T09:28:43.571Z,100039
2017-09-28T09:30:52.440Z,100035
2017-09-28T09:33:23.471Z,100031
2017-09-28T09:35:44.187Z,100026
2017-09-28T09:37:56.486Z,100032
2017-09-28T09:40:28.039Z,100032
2017-09-28T09:48:22.093Z,100032
2017-09-28T09:53:02.123Z,100039
2017-09-28T09:55:30.799Z,100044
2017-09-28T09:57:59.828Z,100044
2017-09-28T10:05:17.056Z,100045
2017-09-28T10:08:24.671Z,100039
2017-09-28T10:13:49.086Z,100039
2017-09-28T10:18:37.716Z,100034
2017-09-28T10:21:06.767Z,100039
2017-09-28T10:26:08.742Z,100036
2017-09-28T10:28:26.599Z,100034
2017-09-28T10:31:01.044Z,100036
2017-09-28T10:33:28.105Z,100041
2017-09-28T10:38:11.862Z,100040
2017-09-28T10:40:26.213Z,100038
2017-09-28T10:42:41.612Z,100042
2017-09-28T10:45:07.493Z,100039
2017-09-28T10:49:45.043Z,100031
2017-09-28T10:51:55.956Z,100032
2017-09-28T10:54:04.227Z,100039
2017-09-28T10:56:20.777Z,100038
2017-09-28T10:58:39.330Z,100041
2017-09-28T11:00:50.349Z,100031
2017-09-28T11:03:00.098Z,100034
2017-09-28T11:05:16.094Z,100027
2017-09-28T11:07:23.756Z,100025
2017-09-28T11:09:30.149Z,100018
2017-09-28T11:11:43.587Z,100020
2017-09-28T11:13:52.903Z,100013
2017-09-28T11:16:00.006Z,100006
2017-09-28T11:18:09.677Z,100004
2017-09-28T11:20:19.554Z,100012
2017-09-28T11:22:32.603Z,100014
2017-09-28T11:24:39.765Z,100018
2017-09-28T11:26:52.659Z,100024
2017-09-28T11:29:01.498Z,100023
2017-09-28T11:31:08.335Z,100024
2017-09-28T11:33:14.259Z,100024
2017-09-28T11:35:23.873Z,100024
2017-09-28T11:37:32.071Z,100024
2017-09-28T11:39:40.746Z,100021
2017-09-28T11:41:47.467Z,100017
2017-09-28T11:43:55.981Z,100008
2017-09-28T11:46:08.661Z,100008
2017-09-28T11:48:18.137Z,100006
2017-09-28T11:50:29.456Z,100005
2017-09-28T11:52:42.258Z,100002
2017-09-28T11:54:50.882Z,100002
2017-09-28T11:57:00.355Z,100000
2017-09-28T11:59:19.976Z,99981
2017-09-28T12:01:40.014Z,99999
2017-09-28T12:03:57.354Z,99987
2017-09-28T12:06:14.669Z,99992
2017-09-28T12:08:33.096Z,99987
2017-09-28T12:10:42.100Z,99992
2017-09-28T12:12:49.504Z,99990
2017-09-28T12:14:56.931Z,99989
2017-09-28T12:17:05.326Z,99987
2017-09-28T12:19:11.649Z,99993
2017-09-28T12:21:20.569Z,99993
2017-09-28T12:23:31.194Z,99996
2017-09-28T12:25:40.023Z,99988
2017-09-28T12:27:46.148Z,99989
2017-09-28T12:30:02.555Z,99992
2017-09-28T12:32:11.183Z,99984
2017-09-28T12:34:22.908Z,99997
2017-09-28T12:38:44.680Z,100005
2017-09-28T12:43:11.464Z,100012
2017-09-28T12:45:25.108Z,100007
2017-09-28T12:47:32.301Z,100008
2017-09-28T12:51:57.214Z,100013
2017-09-28T12:54:09.161Z,100020
2017-09-28T12:56:17.963Z,100010
2017-09-28T12:58:25.796Z,100012
2017-09-28T13:00:35.697Z,100014
2017-09-28T13:02:44.797Z,100013
2017-09-28T13:04:53.455Z,100015
2017-09-28T13:07:05.456Z,100012
2017-09-28T13:09:16.292Z,100017
2017-09-28T13:11:24.586Z,100011
2017-09-28T13:13:41.949Z,100017
2017-09-28T13:19:09.874Z,100011
2017-09-28T13:21:20.361Z,100006
2017-09-28T14:06:21.095Z,99981
2017-09-28T14:08:37.920Z,99988
2017-09-28T14:13:09.261Z,99992
2017-09-28T14:15:21.435Z,99992
2017-09-28T14:17:29.577Z,99987
2017-09-28T14:19:39.589Z,99979
2017-09-28T14:21:53.849Z,99984
2017-09-28T14:24:09.791Z,99984
2017-09-28T14:26:20.553Z,99988
2017-09-28T14:28:27.822Z,99988
2017-09-28T14:30:37.068Z,99984
2017-09-28T14:32:44.359Z,99989
2017-09-28T14:34:52.127Z,99997
2017-09-28T14:37:00.521Z,99987
2017-09-28T14:39:09.310Z,99988
2017-09-28T14:41:15.171Z,99991
2017-09-28T14:43:22.443Z,99985
2017-09-28T14:45:29.202Z,99984
2017-09-28T14:47:36.392Z,99980
2017-09-28T14:49:44.180Z,99979
2017-09-28T14:51:50.508Z,99979
2017-09-28T14:53:57.890Z,99975
2017-09-28T14:56:09.635Z,99981
2017-09-28T14:58:23.944Z,99977
2017-09-28T15:00:35.273Z,99975
2017-09-28T15:02:44.821Z,99977
2017-09-28T15:04:54.255Z,99970
2017-09-28T15:07:08.255Z,99969
2017-09-28T15:09:17.397Z,99969
2017-09-28T15:11:28.622Z,99971
2017-09-28T15:16:09.362Z,99972
2017-09-28T15:18:16.196Z,99967
2017-09-28T15:20:43.653Z,99973
2017-09-28T15:23:08.245Z,99965
2017-09-28T15:25:24.173Z,99969
2017-09-28T15:27:52.057Z,99967
2017-09-28T15:30:09.473Z,99966
2017-09-28T15:32:28.491Z,99969
2017-09-28T15:34:50.883Z,99973
2017-09-28T15:37:17.180Z,99970
2017-09-28T15:39:46.795Z,99974
2017-09-28T15:42:18.335Z,99972
2017-09-28T15:44:30.716Z,99971
2017-09-28T15:49:37.426Z,99973
2017-09-28T15:52:00.788Z,99977
2017-09-28T15:54:17.235Z,99974
2017-09-28T15:56:40.792Z,99972
2017-09-28T16:01:22.131Z,99975
2017-09-28T16:03:35.519Z,99975
2017-09-28T16:05:49.510Z,99973
2017-09-28T16:08:03.310Z,99982
2017-09-28T16:10:19.710Z,99978
2017-09-28T16:12:31.438Z,99979
2017-09-28T16:14:49.236Z,99983
2017-09-28T16:17:16.008Z,99984
2017-09-28T16:21:53.131Z,99980
2017-09-28T16:24:14.854Z,99985
2017-09-28T16:26:35.908Z,99979
2017-09-28T16:28:49.006Z,99977
2017-09-28T16:31:09.779Z,99981
2017-09-28T16:33:26.225Z,99979
2017-09-28T16:38:06.511Z,99987
2017-09-28T16:46:48.430Z,99984
2017-09-28T16:49:00.815Z,99985
2017-09-28T16:51:09.132Z,99979
2017-09-28T16:53:15.931Z,99977
2017-09-28T16:55:25.298Z,99982
2017-09-28T16:57:32.733Z,99984
2017-09-28T16:59:44.394Z,99987
2017-09-28T17:01:54.408Z,99992
2017-09-28T17:04:03.009Z,99994
2017-09-28T17:06:20.498Z,99993
2017-09-28T17:08:32.702Z,99991
2017-09-28T17:10:39.852Z,99993
2017-09-28T17:12:48.227Z,99992
2017-09-28T17:14:58.702Z,99995
2017-09-28T17:17:10.778Z,99994
2017-09-28T17:19:20.256Z,99997
2017-09-28T17:21:37.875Z,99996
2017-09-28T17:23:48.108Z,99995
2017-09-28T17:26:01.038Z,99997
2017-09-28T17:28:09.613Z,100003
2017-09-28T17:30:29.772Z,99996
2017-09-28T17:32:45.421Z,99996
2017-09-28T17:34:57.497Z,99996
2017-09-28T17:37:08.923Z,99998
2017-09-28T17:39:17.931Z,100004
2017-09-28T17:41:31.950Z,99996
2017-09-28T17:43:45.195Z,99997
2017-09-28T17:52:05.100Z,99997
2017-09-28T17:56:35.924Z,100008
2017-09-28T17:58:48.663Z,100015
2017-09-28T18:00:59.983Z,100012
2017-09-28T18:03:29.450Z,100019
2017-09-28T18:05:56.298Z,100014
2017-09-28T18:08:06.667Z,100021
2017-09-28T18:10:37.031Z,100022
2017-09-28T18:13:09.391Z,100025
2017-09-28T18:15:36.711Z,100022
2017-09-28T18:17:51.236Z,100023
2017-09-28T18:20:03.293Z,100021
2017-09-28T18:22:16.733Z,100020
2017-09-28T18:24:35.393Z,100015
2017-09-28T18:26:56.758Z,100022
2017-09-28T18:29:08.501Z,100023
2017-09-28T18:31:27.983Z,100022
2017-09-28T18:33:44.664Z,100021
2017-09-28T18:35:52.904Z,100022
2017-09-28T18:40:34.067Z,100018
2017-09-28T18:42:46.180Z,100019
2017-09-28T18:44:57.028Z,100021
2017-09-28T18:47:09.775Z,100028
2017-09-28T18:49:23.101Z,100028
2017-09-28T18:51:36.535Z,100022
2017-09-28T18:53:44.802Z,100023
2017-09-28T18:55:56.996Z,100026
2017-09-28T18:58:14.400Z,100028
2017-09-28T19:00:23.943Z,100033
2017-09-28T19:02:36.004Z,100029
2017-09-28T19:04:52.601Z,100031
2017-09-28T19:07:09.392Z,100030
2017-09-28T19:09:23.807Z,100034
2017-09-28T19:11:44.914Z,100038
2017-09-28T19:13:59.657Z,100029
2017-09-28T19:16:14.902Z,100035
2017-09-28T19:18:27.833Z,100033
2017-09-28T19:20:39.166Z,100033
2017-09-28T19:22:56.024Z,100032
2017-09-28T19:30:21.574Z,100031
2017-09-28T19:32:35.825Z,100026
2017-09-28T19:35:05.819Z,100034
2017-09-28T19:39:48.721Z,100032
2017-09-28T19:42:04.290Z,100031
2017-09-28T19:44:25.995Z,100036
2017-09-28T19:49:22.169Z,100033
2017-09-28T19:51:37.619Z,100030
2017-09-28T19:53:53.041Z,100036
2017-09-28T19:56:13.158Z,100034
2017-09-28T19:58:31.195Z,100026
2017-09-28T20:00:41.030Z,100027
2017-09-28T20:02:52.770Z,100015
2017-09-28T20:05:11.716Z,100018
2017-09-28T20:07:32.664Z,100014
2017-09-28T20:09:57.478Z,100016
2017-09-28T20:12:06.549Z,100022
2017-09-28T20:14:12.887Z,100009
2017-09-28T20:16:23.119Z,100012
2017-09-28T20:18:33.433Z,100019
2017-09-28T20:20:43.051Z,100019
2017-09-28T20:22:50.034Z,100020
2017-09-28T20:25:01.682Z,100022
2017-09-28T20:27:09.957Z,100022
2017-09-28T20:29:18.854Z,100023
2017-09-28T20:31:27.083Z,100020
2017-09-28T20:33:38.041Z,100019
2017-09-28T20:35:48.275Z,100020
2017-09-28T20:37:55.963Z,100022
2017-09-28T20:40:07.842Z,100016
2017-09-28T20:42:14.985Z,100018
2017-09-28T20:44:26.433Z,100018
2017-09-28T20:46:39.784Z,100014
2017-09-28T20:48:54.803Z,100018
2017-09-28T20:51:09.302Z,100018
2017-09-28T20:53:19.672Z,100013
2017-09-28T20:55:34.417Z,100014
2017-09-28T20:57:52.796Z,100016
2017-09-28T21:00:20.451Z,100013
2017-09-28T21:02:37.716Z,100013
2017-09-28T21:04:46.354Z,100012
2017-09-28T21:06:56.159Z,100012
2017-09-28T21:09:17.441Z,100016
2017-09-28T21:11:26.529Z,100008
2017-09-28T21:16:05.845Z,100008
2017-09-28T21:18:18.744Z,100012
2017-09-28T21:20:58.074Z,100014
2017-09-28T21:23:24.681Z,100018
2017-09-28T21:25:52.342Z,100010
2017-09-28T21:28:02.993Z,100005
2017-09-28T21:30:20.758Z,100004
2017-09-28T21:34:49.340Z,100006
2017-09-28T21:41:02.362Z,100009
2017-09-28T21:48:18.490Z,100008
2017-09-28T21:50:30.947Z,100004
2017-09-28T21:52:43.114Z,100010
2017-09-28T21:54:54.244Z,100013
2017-09-28T21:59:42.194Z,100014
2017-09-28T22:01:59.004Z,100008
2017-09-28T22:04:08.740Z,100006
2017-09-28T22:06:23.618Z,100000
2017-09-28T22:08:35.374Z,99998
2017-09-28T22:10:47.764Z,99999
2017-09-28T22:12:57.483Z,99994
2017-09-28T22:15:15.932Z,99991
2017-09-28T22:17:25.156Z,99997
2017-09-28T22:19:48.934Z,99994
2017-09-28T22:21:58.529Z,99997
2017-09-28T22:24:08.826Z,99996
2017-09-28T22:26:17.690Z,99998
2017-09-28T22:28:29.004Z,99997
2017-09-28T22:30:41.832Z,99993
2017-09-28T22:32:51.885Z,99988
2017-09-28T22:35:02.409Z,99988
2017-09-28T22:37:23.500Z,99987
2017-09-28T22:39:33.119Z,99992
2017-09-28T22:43:07.739Z,99988
2017-09-28T22:45:17.478Z,99990
2017-09-28T22:47:28.482Z,99992
2017-09-28T22:49:45.258Z,99988
2017-09-28T22:51:57.394Z,99989
2017-09-28T22:54:06.572Z,99984
2017-09-28T22:56:13.361Z,99986
2017-09-28T22:58:20.687Z,99991
2017-09-28T23:00:30.945Z,99982
2017-09-28T23:02:46.785Z,99988
2017-09-28T23:04:54.557Z,99983
2017-09-28T23:07:03.072Z,99973
2017-09-28T23:09:09.369Z,99976
2017-09-28T23:11:15.527Z,99976
2017-09-28T23:13:26.416Z,99969
2017-09-28T23:15:39.701Z,99965
2017-09-28T23:17:46.733Z,99971
2017-09-28T23:19:54.715Z,99977
2017-09-28T23:22:14.337Z,99973
2017-09-28T23:24:33.311Z,99976
2017-09-28T23:28:57.124Z,99971
2017-09-28T23:31:06.459Z,99963
2017-09-28T23:33:14.192Z,99971
2017-09-28T23:35:25.610Z,99967
2017-09-28T23:37:39.017Z,99964
2017-09-28T23:39:46.998Z,99964
2017-09-28T23:41:56.206Z,99966
2017-09-28T23:44:05.406Z,99966
2017-09-28T23:46:14.999Z,99960
2017-09-28T23:48:22.441Z,99961
2017-09-28T23:50:30.508Z,99961
2017-09-28T23:52:37.212Z,99956
2017-09-28T23:54:45.188Z,99954
2017-09-28T23:56:55.552Z,99954
2017-09-28T23:59:03.795Z,99954
